Time;durP1;ratioP1;P1;durP2;ratioP2;P2;SDS_P1;SDS_P2;PMS_P1;PMS_P2;Temp;Humidity;BMP_temperature;BMP_pressure;BME280_temperature;BME280_humidity;BME280_pressure;Samples;Min_cycle;Max_cycle;Signal;HPM_P1;HPM_P2
2023/07/13 00:01:43;;;;;;;5.65;2.70;;;;;;;21.49;55.25;98663.78;5029228;28;20117;-80
2023/07/13 00:04:08;;;;;;;3.97;2.70;;;;;;;21.59;55.05;98652.56;5013860;28;20032;-80
2023/07/13 00:06:35;;;;;;;7.25;2.90;;;;;;;21.58;55.05;98656.41;5012426;28;20037;-80
2023/07/13 00:09:01;;;;;;;6.78;2.92;;;;;;;21.59;55.12;98658.81;4996434;28;20037;-80
2023/07/13 00:11:27;;;;;;;4.45;2.80;;;;;;;21.59;55.06;98663.44;5013725;28;20030;-80
2023/07/13 00:13:53;;;;;;;3.67;2.38;;;;;;;21.64;55.46;98660.56;5012514;28;20132;-80
2023/07/13 00:16:18;;;;;;;3.40;2.05;;;;;;;21.67;55.17;98664.53;5012149;28;20022;-80
2023/07/13 00:18:44;;;;;;;4.30;2.42;;;;;;;21.65;55.15;98664.84;5011808;28;20030;-80
2023/07/13 00:21:11;;;;;;;6.05;2.22;;;;;;;21.67;55.30;98668.84;5028913;28;20048;-80
2023/07/13 00:23:38;;;;;;;3.95;2.17;;;;;;;21.67;55.54;98667.25;5012268;28;20029;-80
2023/07/13 00:26:06;;;;;;;5.70;2.80;;;;;;;21.58;55.71;98678.13;5013615;28;20037;-80
2023/07/13 00:28:32;;;;;;;2.95;2.15;;;;;;;21.43;56.06;98663.16;5028448;28;20032;-80
2023/07/13 00:30:57;;;;;;;3.20;1.95;;;;;;;21.46;56.29;98667.16;5014393;28;20033;-80
2023/07/13 00:33:23;;;;;;;3.90;2.17;;;;;;;21.57;55.72;98665.69;5029446;28;20033;-80
2023/07/13 00:35:49;;;;;;;5.78;2.65;;;;;;;21.51;56.03;98675.91;5012652;28;20022;-80
2023/07/13 00:38:14;;;;;;;3.65;2.00;;;;;;;21.60;55.84;98660.38;5029177;28;20149;-79
2023/07/13 00:40:40;;;;;;;6.20;2.53;;;;;;;21.50;56.05;98671.63;5012875;28;20065;-80
2023/07/13 00:43:16;;;;;;;3.72;2.28;;;;;;;21.49;55.96;98647.50;5029489;28;20037;-80
2023/07/13 00:45:44;;;;;;;4.40;2.88;;;;;;;20.68;59.19;98663.72;5028689;28;20026;-80
2023/07/13 00:48:20;;;;;;;4.88;2.40;;;;;;;21.21;56.46;98663.38;5028708;28;20037;-80
2023/07/13 00:50:49;;;;;;;4.22;3.15;;;;;;;21.30;56.40;98664.16;5013711;28;20022;-80
2023/07/13 00:53:15;;;;;;;3.67;2.42;;;;;;;21.42;56.27;98679.78;5012554;28;20061;-80
2023/07/13 00:55:41;;;;;;;4.63;2.15;;;;;;;21.14;56.87;98678.56;4996174;28;20115;-80
2023/07/13 00:58:06;;;;;;;2.60;2.17;;;;;;;21.33;56.47;98676.28;5012061;28;20405;-80
2023/07/13 01:00:35;;;;;;;3.78;2.63;;;;;;;20.95;57.76;98664.50;5028459;28;20125;-80
2023/07/13 01:03:04;;;;;;;4.88;2.45;;;;;;;21.31;56.66;98665.75;5012528;28;20041;-80
2023/07/13 01:05:31;;;;;;;2.38;2.17;;;;;;;21.13;57.06;98671.53;5012841;28;20499;-80
2023/07/13 01:07:57;;;;;;;3.17;2.30;;;;;;;21.36;56.70;98665.56;5013517;28;20029;-80
2023/07/13 01:10:23;;;;;;;2.58;2.22;;;;;;;21.22;57.24;98675.81;5013522;28;20037;-80
2023/07/13 01:12:49;;;;;;;4.93;2.35;;;;;;;21.27;56.71;98662.09;5012276;28;20026;-80
2023/07/13 01:15:38;;;;;;;6.30;2.95;;;;;;;21.41;56.78;98678.19;5012352;28;20030;-79
2023/07/13 01:18:06;;;;;;;2.20;2.00;;;;;;;21.27;57.09;98669.44;5013077;28;20021;-80
2023/07/13 01:20:36;;;;;;;4.43;2.03;;;;;;;21.32;56.79;98683.63;5012433;28;20428;-80
2023/07/13 01:23:06;;;;;;;3.20;2.65;;;;;;;21.00;58.63;98673.25;5028262;28;20043;-80
2023/07/13 01:25:31;;;;;;;10.93;2.55;;;;;;;20.36;61.92;98683.09;5011834;28;20567;-80
2023/07/13 01:27:57;;;;;;;4.63;2.65;;;;;;;20.59;59.26;98671.03;5011235;28;20031;-80
2023/07/13 01:30:22;;;;;;;3.78;2.40;;;;;;;20.58;58.89;98676.75;5012515;28;20212;-80
2023/07/13 01:32:47;;;;;;;6.95;2.95;;;;;;;20.60;58.89;98664.47;5012982;28;20064;-80
2023/07/13 01:35:13;;;;;;;5.20;2.92;;;;;;;21.07;57.64;98680.94;5011522;28;20029;-80
2023/07/13 01:37:38;;;;;;;5.97;2.85;;;;;;;21.19;57.25;98686.50;5011818;28;20041;-80
2023/07/13 01:40:04;;;;;;;7.45;3.95;;;;;;;19.67;62.51;98667.69;5011777;28;20480;-80
2023/07/13 01:42:30;;;;;;;5.32;2.92;;;;;;;19.69;63.10;98679.81;5012986;28;20388;-79
2023/07/13 01:44:55;;;;;;;6.47;2.92;;;;;;;19.56;63.60;98680.72;5011330;28;20029;-79
2023/07/13 01:47:23;;;;;;;4.90;2.75;;;;;;;19.38;64.18;98671.69;5012026;28;20034;-79
2023/07/13 01:49:49;;;;;;;4.55;2.47;;;;;;;19.34;64.62;98683.41;5011517;28;20469;-79
2023/07/13 01:52:15;;;;;;;9.45;3.28;;;;;;;19.32;65.24;98677.53;5027731;28;20501;-79
2023/07/13 01:54:40;;;;;;;6.78;3.15;;;;;;;19.36;64.25;98683.94;4995179;28;20076;-80
2023/07/13 01:57:05;;;;;;;3.22;2.88;;;;;;;19.76;61.25;98680.19;5012648;28;20423;-80
2023/07/13 01:59:33;;;;;;;6.32;2.63;;;;;;;20.51;59.03;98677.22;5011511;28;20041;-80
2023/07/13 02:01:58;;;;;;;7.40;3.30;;;;;;;20.26;60.59;98686.13;4995432;28;20048;-80
2023/07/13 02:04:23;;;;;;;3.55;3.25;;;;;;;19.90;62.57;98690.91;5012450;28;20466;-80
2023/07/13 02:06:49;;;;;;;6.97;2.70;;;;;;;19.40;63.32;98664.06;5010925;28;20042;-79
2023/07/13 02:09:14;;;;;;;5.15;2.80;;;;;;;19.29;64.26;98692.47;5012401;28;20061;-80
2023/07/13 02:11:40;;;;;;;3.63;2.78;;;;;;;19.30;66.03;98690.56;5027669;28;20030;-79
2023/07/13 02:14:05;;;;;;;4.50;2.78;;;;;;;19.14;65.78;98684.72;4994820;28;20084;-80
2023/07/13 02:16:31;;;;;;;5.88;2.97;;;;;;;19.44;65.93;98686.69;4994770;28;20065;-79
2023/07/13 02:18:57;;;;;;;5.55;3.33;;;;;;;18.90;67.25;98662.59;5012306;28;20025;-80
2023/07/13 02:21:23;;;;;;;3.75;2.95;;;;;;;18.90;68.10;98675.31;5012639;28;20061;-80
2023/07/13 02:23:50;;;;;;;4.57;3.55;;;;;;;18.60;67.84;98672.22;5011830;28;20423;-80
2023/07/13 02:26:15;;;;;;;4.90;2.70;;;;;;;18.69;65.56;98661.47;5011782;28;20593;-80
2023/07/13 02:28:41;;;;;;;4.28;2.70;;;;;;;18.73;64.53;98659.75;5010951;28;20041;-80
2023/07/13 02:31:09;;;;;;;4.00;2.95;;;;;;;18.93;63.61;98643.03;5011119;28;20038;-79
2023/07/13 02:33:35;;;;;;;3.28;2.70;;;;;;;19.53;62.22;98648.84;5012325;28;20037;-80
2023/07/13 02:36:00;;;;;;;4.07;2.63;;;;;;;19.48;62.73;98642.78;5011027;28;20021;-80
2023/07/13 02:38:26;;;;;;;4.57;2.92;;;;;;;19.59;62.30;98622.44;4994396;28;20040;-80
2023/07/13 02:40:51;;;;;;;2.90;2.58;;;;;;;19.90;61.26;98634.81;5014580;28;20072;-80
2023/07/13 02:43:16;;;;;;;4.35;2.50;;;;;;;20.23;59.99;98642.56;5016252;28;20469;-80
2023/07/13 02:45:46;;;;;;;4.30;2.38;;;;;;;20.07;59.84;98628.66;5031661;28;20041;-80
2023/07/13 02:48:14;;;;;;;2.78;2.58;;;;;;;19.86;60.53;98631.13;5015980;28;20477;-79
2023/07/13 02:50:39;;;;;;;3.08;2.78;;;;;;;20.29;59.45;98636.69;5014957;28;20112;-80
2023/07/13 02:53:04;;;;;;;5.25;2.78;;;;;;;20.16;59.37;98640.28;5014657;28;20128;-80
2023/07/13 02:55:30;;;;;;;3.55;2.58;;;;;;;20.31;58.77;98634.47;5031416;28;20026;-80
2023/07/13 02:57:55;;;;;;;4.68;2.40;;;;;;;20.35;58.46;98630.00;5014870;28;20061;-80
2023/07/13 03:00:20;;;;;;;4.75;2.50;;;;;;;20.47;58.30;98645.63;5015002;28;20493;-80
2023/07/13 03:02:46;;;;;;;2.97;2.58;;;;;;;20.25;58.71;98633.00;5014579;28;20088;-80
2023/07/13 03:05:12;;;;;;;6.20;2.50;;;;;;;20.34;58.39;98647.38;5013917;28;20073;-80
2023/07/13 03:07:38;;;;;;;3.92;2.05;;;;;;;20.31;58.24;98647.22;4998640;28;20037;-80
2023/07/13 03:10:04;;;;;;;8.57;3.28;;;;;;;20.19;58.41;98629.63;5015919;28;20026;-80
2023/07/13 03:12:29;;;;;;;6.13;3.60;;;;;;;20.28;58.34;98645.94;5014864;28;20026;-80
2023/07/13 03:14:55;;;;;;;4.53;2.90;;;;;;;20.30;58.09;98648.31;5030864;28;20084;-80
2023/07/13 03:17:20;;;;;;;7.20;2.95;;;;;;;20.15;58.30;98654.97;5013983;28;20213;-80
2023/07/13 03:19:49;;;;;;;5.50;2.33;;;;;;;20.00;58.78;98663.53;4997905;28;20030;-80
2023/07/13 03:22:15;;;;;;;4.38;2.22;;;;;;;19.42;60.66;98647.50;5014672;28;20115;-80
2023/07/13 03:24:40;;;;;;;6.40;2.83;;;;;;;19.97;58.84;98647.91;5013077;28;20040;-80
2023/07/13 03:27:06;;;;;;;2.78;2.20;;;;;;;20.05;58.57;98655.28;5011672;28;20033;-80
2023/07/13 03:29:32;;;;;;;3.55;2.83;;;;;;;20.14;58.56;98661.50;5024882;28;20057;-80
2023/07/13 03:31:57;;;;;;;5.30;2.30;;;;;;;20.14;58.45;98666.91;5012809;28;20092;-80
2023/07/13 03:34:22;;;;;;;4.13;2.35;;;;;;;20.15;58.30;98663.09;5023621;28;20030;-80
2023/07/13 03:36:48;;;;;;;3.63;2.25;;;;;;;20.11;58.55;98660.22;5013527;28;20032;-80
2023/07/13 03:39:13;;;;;;;8.02;2.92;;;;;;;20.19;58.45;98672.19;4997371;28;20497;-80
2023/07/13 03:41:38;;;;;;;3.83;2.60;;;;;;;20.15;58.31;98682.06;4996876;28;20116;-80
2023/07/13 03:44:04;;;;;;;2.53;2.25;;;;;;;19.99;58.53;98686.31;5014912;28;20080;-80
2023/07/13 03:46:30;;;;;;;5.78;2.50;;;;;;;19.96;58.92;98690.44;5013809;28;20034;-79
2023/07/13 03:48:56;;;;;;;5.45;2.85;;;;;;;19.86;58.96;98681.81;5013569;28;20029;-80
2023/07/13 03:51:21;;;;;;;6.70;2.65;;;;;;;19.97;58.43;98693.94;4996550;28;20034;-80
2023/07/13 03:53:48;;;;;;;4.88;3.17;;;;;;;19.74;59.26;98695.94;5013589;28;20021;-80
2023/07/13 03:56:15;;;;;;;7.93;2.70;;;;;;;19.60;59.85;98697.13;5014715;28;20033;-80
2023/07/13 03:58:42;;;;;;;5.10;2.78;;;;;;;19.65;59.56;98703.22;5014572;28;20040;-80
2023/07/13 04:01:09;;;;;;;6.72;3.15;;;;;;;19.71;59.73;98718.22;5013246;28;20076;-79
2023/07/13 04:03:35;;;;;;;4.63;2.63;;;;;;;19.91;58.87;98714.19;5013385;28;20033;-79
2023/07/13 04:06:02;;;;;;;7.05;2.80;;;;;;;19.89;58.67;98703.66;5014721;28;20495;-80
2023/07/13 04:08:36;;;;;;;4.45;2.45;;;;;;;19.70;59.48;98707.72;5014423;28;20033;-80
2023/07/13 04:11:03;;;;;;;7.22;2.75;;;;;;;19.90;59.17;98715.28;5013688;28;20041;-80
2023/07/13 04:13:29;;;;;;;5.97;2.63;;;;;;;19.83;58.91;98709.53;5014803;28;20037;-80
2023/07/13 04:15:55;;;;;;;4.97;2.90;;;;;;;19.88;59.51;98714.78;5012757;28;20066;-80
2023/07/13 04:18:21;;;;;;;5.93;2.95;;;;;;;19.91;59.26;98725.00;5012642;28;20061;-80
2023/07/13 04:20:48;;;;;;;6.95;3.13;;;;;;;19.66;61.11;98729.19;5014420;28;20040;-80
2023/07/13 04:23:13;;;;;;;4.93;2.85;;;;;;;19.63;61.31;98720.88;5013899;28;20034;-81
2023/07/13 04:25:39;;;;;;;4.20;2.30;;;;;;;19.85;59.63;98718.94;5013876;28;20029;-80
2023/07/13 04:28:05;;;;;;;7.20;3.05;;;;;;;19.75;60.04;98723.81;5013886;28;20030;-82
2023/07/13 04:30:31;;;;;;;4.85;2.85;;;;;;;19.71;60.92;98731.75;5015145;28;20061;-82
2023/07/13 04:32:56;;;;;;;2.33;2.13;;;;;;;19.46;60.78;98718.88;5013707;28;20029;-82
2023/07/13 04:35:22;;;;;;;7.35;2.78;;;;;;;19.73;60.09;98737.66;4997032;28;20030;-82
2023/07/13 04:37:50;;;;;;;5.43;2.65;;;;;;;19.68;60.12;98723.47;5015016;28;20025;-82
2023/07/13 04:40:17;;;;;;;5.45;2.63;;;;;;;19.97;59.35;98738.13;4997286;28;20041;-82
2023/07/13 04:42:44;;;;;;;9.05;2.88;;;;;;;19.83;60.78;98742.03;5013654;28;20026;-82
2023/07/13 04:45:10;;;;;;;5.80;2.92;;;;;;;19.73;62.07;98734.16;5013616;28;20029;-82
2023/07/13 04:47:35;;;;;;;7.43;3.03;;;;;;;20.02;60.98;98745.31;4997289;28;20034;-82
2023/07/13 04:50:02;;;;;;;3.83;2.67;;;;;;;20.33;58.62;98751.53;5014656;28;20472;-82
2023/07/13 04:52:28;;;;;;;4.68;2.28;;;;;;;20.36;58.36;98753.59;5014681;28;20065;-82
2023/07/13 04:54:53;;;;;;;7.22;2.60;;;;;;;20.50;58.12;98751.56;5013404;28;20045;-82
2023/07/13 04:57:19;;;;;;;5.78;2.80;;;;;;;20.28;59.11;98757.09;5013537;28;20030;-81
2023/07/13 04:59:44;;;;;;;9.23;3.15;;;;;;;20.29;58.93;98747.81;4996769;28;20034;-82
2023/07/13 05:02:10;;;;;;;7.00;2.53;;;;;;;20.34;59.73;98752.31;5012477;28;20095;-82
2023/07/13 05:04:35;;;;;;;5.07;2.55;;;;;;;20.37;59.23;98759.81;4996390;28;20534;-81
2023/07/13 05:07:01;;;;;;;5.10;2.90;;;;;;;20.47;58.35;98771.16;4980627;28;20034;-82
2023/07/13 05:09:26;;;;;;;3.58;2.70;;;;;;;20.81;57.22;98754.19;4997099;28;20574;-82
2023/07/13 05:11:52;;;;;;;10.35;3.03;;;;;;;20.78;58.24;98763.75;5013129;28;20460;-82
2023/07/13 05:14:17;;;;;;;5.72;2.40;;;;;;;20.80;57.77;98758.00;5013151;28;20078;-82
2023/07/13 05:16:43;;;;;;;6.03;2.42;;;;;;;20.74;57.76;98756.56;5013088;28;20026;-81
2023/07/13 05:19:09;;;;;;;4.47;2.53;;;;;;;20.96;56.69;98759.16;4996801;28;20065;-82
2023/07/13 05:21:34;;;;;;;7.03;2.50;;;;;;;20.97;57.00;98759.97;4980582;28;20045;-82
2023/07/13 05:24:00;;;;;;;3.65;2.70;;;;;;;20.86;56.90;98749.41;5014401;28;20021;-81
2023/07/13 05:26:25;;;;;;;5.18;2.60;;;;;;;20.68;59.21;98736.94;4996307;28;20497;-83
2023/07/13 05:28:50;;;;;;;3.70;2.10;;;;;;;20.97;56.89;98755.31;4996223;28;20440;-81
2023/07/13 05:31:16;;;;;;;5.88;2.50;;;;;;;21.12;56.45;98754.09;4996359;28;20033;-82
2023/07/13 05:33:41;;;;;;;4.88;2.30;;;;;;;20.93;57.06;98757.06;5012412;28;20461;-82
2023/07/13 05:36:08;;;;;;;4.18;2.22;;;;;;;21.16;55.93;98763.19;4979749;28;20046;-82
2023/07/13 05:38:34;;;;;;;5.75;2.58;;;;;;;21.18;55.84;98755.50;5013781;28;20096;-82
2023/07/13 05:41:00;;;;;;;5.07;2.35;;;;;;;21.08;56.51;98753.91;5013249;28;20049;-82
2023/07/13 05:43:25;;;;;;;3.20;1.83;;;;;;;21.31;55.62;98751.84;5014370;28;20026;-81
2023/07/13 05:45:53;;;;;;;3.55;2.28;;;;;;;21.41;55.98;98767.78;5012218;28;20565;-82
2023/07/13 05:48:18;;;;;;;4.65;2.15;;;;;;;21.37;55.46;98745.91;5014144;28;20018;-81
2023/07/13 05:50:44;;;;;;;7.95;3.00;;;;;;;21.36;55.48;98747.03;5012667;28;20473;-81
2023/07/13 05:53:10;;;;;;;7.63;2.60;;;;;;;21.26;55.61;98762.84;5012879;28;20040;-82
2023/07/13 05:55:35;;;;;;;4.43;2.63;;;;;;;21.31;57.18;98760.78;5012710;28;20381;-82
2023/07/13 05:58:01;;;;;;;5.55;2.85;;;;;;;21.47;55.57;98761.09;5012037;28;20083;-82
2023/07/13 06:00:26;;;;;;;6.03;2.22;;;;;;;21.46;55.78;98760.28;5013614;28;20129;-82
2023/07/13 06:02:52;;;;;;;5.65;2.03;;;;;;;21.46;55.61;98759.50;5012976;28;20038;-82
2023/07/13 06:05:18;;;;;;;5.88;2.83;;;;;;;21.44;55.67;98764.44;5012732;28;20497;-82
2023/07/13 06:07:44;;;;;;;6.88;2.40;;;;;;;21.11;56.84;98785.06;5012887;28;20050;-82
2023/07/13 06:10:09;;;;;;;10.63;3.03;;;;;;;21.03;56.45;98780.38;5012841;28;20494;-82
2023/07/13 06:12:35;;;;;;;6.90;2.28;;;;;;;21.14;56.36;98774.38;5012479;28;20103;-82
2023/07/13 06:15:00;;;;;;;4.25;2.88;;;;;;;21.39;57.15;98781.69;4995603;28;20037;-82
2023/07/13 06:17:26;;;;;;;9.85;2.50;;;;;;;21.64;55.25;98780.88;5012288;28;20374;-82
2023/07/13 06:19:51;;;;;;;6.80;2.65;;;;;;;21.56;55.71;98783.59;5013430;28;20086;-82
2023/07/13 06:22:17;;;;;;;4.82;2.30;;;;;;;21.81;54.90;98788.19;4996124;28;20029;-82
2023/07/13 06:24:42;;;;;;;4.47;2.10;;;;;;;21.63;54.85;98773.84;5013375;28;20366;-82
2023/07/13 06:27:07;;;;;;;5.57;2.22;;;;;;;21.48;55.35;98768.13;4995674;28;20462;-81
2023/07/13 06:29:33;;;;;;;6.13;2.25;;;;;;;21.39;55.11;98781.69;4977898;28;20362;-81
2023/07/13 06:31:58;;;;;;;7.40;2.90;;;;;;;21.49;55.22;98781.38;5010527;28;20037;-82
2023/07/13 06:34:24;;;;;;;4.68;2.28;;;;;;;21.65;55.03;98777.03;5010446;28;20044;-82
2023/07/13 06:36:49;;;;;;;9.07;2.05;;;;;;;21.74;54.85;98789.81;5011286;28;20025;-82
2023/07/13 06:39:14;;;;;;;8.02;3.05;;;;;;;21.40;55.23;98780.59;4993667;28;20066;-82
2023/07/13 06:41:40;;;;;;;7.65;1.95;;;;;;;21.52;55.09;98790.78;5010040;28;20030;-82
2023/07/13 06:44:06;;;;;;;6.63;2.05;;;;;;;21.67;55.04;98785.66;5010165;28;20425;-82
2023/07/13 06:46:32;;;;;;;6.10;2.00;;;;;;;21.71;54.75;98774.94;4993791;28;20543;-82
2023/07/13 06:48:57;;;;;;;4.75;2.28;;;;;;;21.74;54.58;98778.94;5011179;28;20030;-82
2023/07/13 06:51:23;;;;;;;4.00;1.92;;;;;;;21.54;54.78;98774.97;5011425;28;20092;-81
2023/07/13 06:53:49;;;;;;;5.78;2.58;;;;;;;21.69;54.82;98801.63;5010088;28;20030;-82
2023/07/13 06:56:15;;;;;;;4.82;2.00;;;;;;;21.67;54.84;98785.66;4993725;28;20129;-82
2023/07/13 06:58:41;;;;;;;4.72;2.00;;;;;;;21.67;54.54;98789.50;5011161;28;20061;-81
2023/07/13 07:01:06;;;;;;;5.07;1.83;;;;;;;21.49;54.82;98783.31;5010170;28;20061;-82
2023/07/13 07:03:32;;;;;;;5.55;2.33;;;;;;;21.58;54.31;98770.50;5010010;28;20080;-82
2023/07/13 07:06:25;;;;;;;7.13;1.65;;;;;;;21.71;54.19;98785.03;5009990;28;20037;-82
2023/07/13 07:08:52;;;;;;;3.55;1.70;;;;;;;21.75;54.17;98794.94;4996597;28;20113;-82
2023/07/13 07:11:22;;;;;;;2.92;1.70;;;;;;;21.82;54.04;98780.84;5010036;28;20038;-82
2023/07/13 07:13:47;;;;;;;6.85;2.17;;;;;;;21.88;54.33;98799.41;5011646;28;20424;-82
2023/07/13 07:16:13;;;;;;;7.47;2.28;;;;;;;21.92;54.11;98792.22;5011405;28;20025;-82
2023/07/13 07:18:38;;;;;;;4.60;1.75;;;;;;;21.78;54.36;98791.56;5009768;28;20030;-81
2023/07/13 07:21:04;;;;;;;4.68;1.75;;;;;;;21.90;54.08;98804.50;5010236;28;20473;-82
2023/07/13 07:23:29;;;;;;;10.13;2.05;;;;;;;21.67;54.07;98781.38;5010020;28;20033;-81
2023/07/13 07:25:55;;;;;;;8.07;1.80;;;;;;;21.88;53.73;98774.16;5010104;28;20036;-81
2023/07/13 07:28:20;;;;;;;2.90;1.98;;;;;;;21.81;53.84;98780.06;5012758;28;20034;-82
2023/07/13 07:30:47;;;;;;;8.13;2.13;;;;;;;21.75;55.05;98791.41;5014973;28;20025;-81
2023/07/13 07:33:12;;;;;;;4.82;1.70;;;;;;;21.85;54.02;98781.03;5014887;28;20033;-82
2023/07/13 07:35:38;;;;;;;2.80;1.80;;;;;;;21.99;53.40;98783.56;4997007;28;20547;-82
2023/07/13 07:38:03;;;;;;;3.42;1.55;;;;;;;22.07;53.68;98802.56;5013098;28;20026;-82
2023/07/13 07:40:29;;;;;;;2.33;1.33;;;;;;;22.03;53.12;98795.38;5012876;28;20088;-82
2023/07/13 07:42:54;;;;;;;3.55;1.52;;;;;;;21.84;53.82;98787.56;5013514;28;20037;-82
2023/07/13 07:45:20;;;;;;;2.78;1.55;;;;;;;21.95;53.83;98802.41;4997165;28;20037;-82
2023/07/13 07:47:46;;;;;;;6.93;1.58;;;;;;;22.27;53.05;98793.69;5014425;28;20064;-82
2023/07/13 07:50:11;;;;;;;2.00;1.13;;;;;;;22.41;52.69;98798.91;5013145;28;20026;-82
2023/07/13 07:52:37;;;;;;;3.38;2.00;;;;;;;22.43;52.63;98791.25;4996649;28;20466;-82
2023/07/13 07:55:05;;;;;;;4.63;1.80;;;;;;;22.51;52.54;98797.75;4996715;28;20026;-82
2023/07/13 07:57:30;;;;;;;4.78;2.00;;;;;;;22.37;54.17;98803.41;5012659;28;20026;-82
2023/07/13 07:59:55;;;;;;;2.60;1.80;;;;;;;22.60;52.24;98801.25;5014320;28;20363;-82
2023/07/13 08:02:21;;;;;;;3.78;2.08;;;;;;;22.64;52.11;98810.34;5012903;28;20037;-81
2023/07/13 08:04:46;;;;;;;4.15;1.80;;;;;;;22.63;52.43;98812.28;5013191;28;20030;-82
2023/07/13 08:07:11;;;;;;;3.53;1.60;;;;;;;22.80;51.78;98795.84;5012637;28;20041;-82
2023/07/13 08:09:37;;;;;;;5.15;1.90;;;;;;;22.67;53.04;98807.75;4996483;28;20026;-82
2023/07/13 08:12:02;;;;;;;3.97;1.55;;;;;;;22.46;53.15;98792.47;4996495;28;20032;-82
2023/07/13 08:14:28;;;;;;;2.97;1.80;;;;;;;22.77;52.08;98798.44;4996515;28;20040;-82
2023/07/13 08:16:53;;;;;;;3.92;1.58;;;;;;;22.94;51.63;98809.22;4996113;28;20137;-82
2023/07/13 08:19:19;;;;;;;2.92;1.73;;;;;;;22.80;51.74;98814.91;5012881;28;20038;-82
2023/07/13 08:21:44;;;;;;;4.97;2.15;;;;;;;22.73;51.87;98800.22;4996446;28;20117;-82
2023/07/13 08:24:10;;;;;;;5.65;2.03;;;;;;;22.99;51.60;98819.91;5012680;28;20113;-82
2023/07/13 08:26:35;;;;;;;5.03;1.80;;;;;;;22.97;51.20;98805.84;5013471;28;20033;-82
2023/07/13 08:29:03;;;;;;;4.53;1.60;;;;;;;22.92;51.01;98806.03;5012528;28;20034;-81
2023/07/13 08:31:28;;;;;;;2.63;1.73;;;;;;;23.06;51.78;98798.41;5012504;28;20040;-82
2023/07/13 08:33:54;;;;;;;4.40;1.98;;;;;;;23.07;50.87;98814.41;4996234;28;20026;-82
2023/07/13 08:36:19;;;;;;;3.30;1.73;;;;;;;23.29;50.41;98818.75;5012579;28;20157;-81
2023/07/13 08:38:45;;;;;;;6.13;1.63;;;;;;;23.45;50.05;98819.78;4995054;28;20030;-82
2023/07/13 08:41:14;;;;;;;10.30;2.20;;;;;;;23.34;50.67;98809.59;5012395;28;20129;-82
2023/07/13 08:43:40;;;;;;;2.97;1.50;;;;;;;23.34;50.45;98815.06;5012323;28;20029;-82
2023/07/13 08:46:15;;;;;;;2.28;1.83;;;;;;;23.45;49.71;98814.34;5012338;28;20022;-82
2023/07/13 08:48:53;;;;;;;4.88;1.73;;;;;;;23.51;49.89;98814.91;5012048;28;20509;-82
2023/07/13 08:51:43;;;;;;;6.97;1.77;;;;;;;23.29;51.61;98818.75;4996698;28;20029;-82
2023/07/13 08:54:31;;;;;;;6.32;1.55;;;;;;;23.61;49.77;98807.13;5013849;28;20117;-82
2023/07/13 08:57:02;;;;;;;4.03;1.70;;;;;;;23.72;49.44;98813.75;5012037;28;20116;-81
2023/07/13 08:59:31;;;;;;;2.67;1.30;;;;;;;23.72;50.66;98816.47;5012028;28;20113;-82
2023/07/13 09:02:18;;;;;;;3.60;1.75;;;;;;;23.73;49.54;98817.28;5013598;28;20112;-82
2023/07/13 09:05:08;;;;;;;3.80;1.85;;;;;;;23.72;49.29;98793.91;5011937;28;20026;-82
2023/07/13 09:07:42;;;;;;;4.72;1.65;;;;;;;23.73;49.43;98823.53;5013240;28;20473;-81
2023/07/13 09:10:15;;;;;;;2.08;1.25;;;;;;;23.74;49.44;98818.88;5013081;28;20021;-82
2023/07/13 09:13:12;;;;;;;2.20;1.50;;;;;;;23.79;49.69;98815.94;5013169;28;20121;-82
2023/07/13 09:15:41;;;;;;;7.85;2.72;;;;;;;23.66;50.82;98819.75;5013172;28;20504;-82
2023/07/13 09:18:14;;;;;;;4.43;1.95;;;;;;;23.57;49.69;98811.66;4995112;28;20588;-81
2023/07/13 09:20:49;;;;;;;5.28;1.63;;;;;;;23.87;49.39;98817.00;5011676;28;20109;-81
2023/07/13 09:23:18;;;;;;;4.30;1.77;;;;;;;23.64;49.83;98811.09;5012279;28;20026;-82
2023/07/13 09:25:47;;;;;;;2.40;1.42;;;;;;;23.83;49.31;98825.84;4995331;28;20037;-82
2023/07/13 09:28:18;;;;;;;4.82;1.63;;;;;;;23.91;48.49;98809.72;5011418;28;20036;-82
2023/07/13 09:30:53;;;;;;;4.55;1.88;;;;;;;23.88;51.88;98818.56;5011364;28;20497;-82
2023/07/13 09:33:19;;;;;;;4.63;1.70;;;;;;;23.78;49.08;98800.72;5011735;28;20030;-82
2023/07/13 09:35:44;;;;;;;5.25;2.15;;;;;;;24.07;48.90;98795.13;5011448;28;20033;-81
2023/07/13 09:38:15;;;;;;;9.63;2.13;;;;;;;23.69;50.39;98805.47;5012824;28;20528;-82
2023/07/13 09:41:16;;;;;;;5.80;1.42;;;;;;;23.85;50.00;98815.38;5011228;28;20038;-82
2023/07/13 09:44:01;;;;;;;3.92;1.20;;;;;;;23.66;49.89;98822.47;4979474;28;20493;-82
2023/07/13 09:46:26;;;;;;;3.83;1.63;;;;;;;23.97;50.94;98827.47;5010882;28;20492;-82
2023/07/13 09:48:52;;;;;;;3.10;1.52;;;;;;;24.16;48.80;98809.47;5010281;28;20022;-82
2023/07/13 09:51:17;;;;;;;2.45;1.33;;;;;;;24.39;48.53;98812.59;5010499;28;20442;-82
2023/07/13 09:53:44;;;;;;;2.63;1.50;;;;;;;24.47;48.44;98790.66;4978759;28;20049;-82
2023/07/13 09:56:20;;;;;;;2.28;1.20;;;;;;;24.29;48.59;98816.53;5011400;28;20018;-82
2023/07/13 09:58:45;;;;;;;4.10;1.52;;;;;;;24.33;50.12;98820.19;5012400;28;20034;-81
2023/07/13 10:01:12;;;;;;;4.05;1.63;;;;;;;24.52;47.72;98816.91;5011145;28;20030;-82
2023/07/13 10:03:38;;;;;;;6.18;1.92;;;;;;;24.33;48.90;98813.94;4994828;28;20050;-82
2023/07/13 10:06:18;;;;;;;3.72;1.77;;;;;;;24.69;47.82;98796.78;5012632;28;20565;-82
2023/07/13 10:08:49;;;;;;;4.85;1.80;;;;;;;24.66;48.29;98819.31;5010788;28;20599;-82
2023/07/13 10:11:29;;;;;;;8.27;2.47;;;;;;;24.62;47.98;98818.41;5012010;28;20072;-82
2023/07/13 10:14:17;;;;;;;4.13;1.63;;;;;;;24.71;48.02;98803.50;5011178;28;20025;-82
2023/07/13 10:16:45;;;;;;;4.80;1.52;;;;;;;24.44;48.16;98821.34;5011842;28;20037;-82
2023/07/13 10:19:25;;;;;;;6.43;1.73;;;;;;;24.51;48.01;98816.13;5012274;28;20028;-82
2023/07/13 10:21:59;;;;;;;4.07;1.77;;;;;;;24.39;49.19;98826.22;5011078;28;20021;-82
2023/07/13 10:24:29;;;;;;;5.13;1.30;;;;;;;24.65;48.08;98823.16;5010913;28;20030;-83
2023/07/13 10:27:15;;;;;;;2.67;1.70;;;;;;;24.83;47.14;98811.72;5011931;28;20449;-82
2023/07/13 10:30:09;;;;;;;5.78;1.55;;;;;;;24.87;47.18;98807.16;5010908;28;20033;-82
2023/07/13 10:32:35;;;;;;;4.38;1.80;;;;;;;25.02;46.80;98828.31;5012150;28;20025;-82
2023/07/13 10:35:02;;;;;;;24.40;3.95;;;;;;;24.43;47.36;98816.22;5010647;28;20499;-81
2023/07/13 10:37:36;;;;;;;2.53;1.60;;;;;;;24.46;47.99;98808.16;4994334;28;20026;-82
2023/07/13 10:40:05;;;;;;;3.05;1.63;;;;;;;24.79;47.60;98824.44;5010183;28;20095;-82
2023/07/13 10:42:37;;;;;;;4.43;1.77;;;;;;;24.80;46.66;98822.50;4978353;28;20030;-82
2023/07/13 10:45:15;;;;;;;3.08;1.50;;;;;;;25.10;46.74;98805.53;5010721;28;20061;-82
2023/07/13 10:47:42;;;;;;;4.57;1.60;;;;;;;25.02;47.42;98814.66;5010396;28;20500;-82
2023/07/13 10:50:21;;;;;;;5.13;1.63;;;;;;;25.35;46.56;98795.34;5011516;28;20026;-82
2023/07/13 10:52:54;;;;;;;3.53;1.45;;;;;;;25.80;45.95;98822.41;5010421;28;20426;-82
2023/07/13 10:55:50;;;;;;;3.58;1.45;;;;;;;25.57;45.78;98824.09;5011719;28;20385;-82
2023/07/13 10:58:19;;;;;;;8.43;2.17;;;;;;;25.76;45.73;98830.53;4975731;28;20096;-82
2023/07/13 11:01:03;;;;;;;19.08;2.83;;;;;;;25.59;45.97;98819.88;5012159;28;20473;-82
2023/07/13 11:03:30;;;;;;;1.42;1.20;;;;;;;25.92;45.36;98831.38;5015579;28;20032;-82
2023/07/13 11:06:09;;;;;;;2.25;1.20;;;;;;;25.78;46.23;98839.16;5014223;28;20362;-82
2023/07/13 11:08:37;;;;;;;5.78;2.17;;;;;;;25.42;46.79;98822.91;5014225;28;20030;-82
2023/07/13 11:11:03;;;;;;;8.18;1.92;;;;;;;25.57;46.81;98826.84;4998109;28;20492;-82
2023/07/13 11:13:48;;;;;;;3.28;1.77;;;;;;;25.51;48.12;98822.78;5015616;28;20026;-82
2023/07/13 11:16:20;;;;;;;3.40;1.90;;;;;;;25.79;45.71;98839.97;5013262;28;20050;-82
2023/07/13 11:18:48;;;;;;;3.05;1.50;;;;;;;25.68;46.29;98823.28;5015905;28;20439;-82
2023/07/13 11:21:19;;;;;;;4.20;1.50;;;;;;;26.06;45.55;98836.41;5015687;28;20022;-82
2023/07/13 11:23:53;;;;;;;2.95;1.70;;;;;;;25.95;45.61;98827.13;5015211;28;20025;-82
2023/07/13 11:26:47;;;;;;;2.97;1.27;;;;;;;25.94;45.65;98823.59;5015430;28;20030;-82
2023/07/13 11:29:25;;;;;;;3.38;1.30;;;;;;;26.01;45.05;98812.84;5014811;28;20437;-82
2023/07/13 11:31:57;;;;;;;1.77;1.40;;;;;;;26.25;44.57;98813.88;5015255;28;20033;-82
2023/07/13 11:34:38;;;;;;;2.47;1.48;;;;;;;26.20;44.94;98814.13;5013791;28;20377;-82
2023/07/13 11:37:12;;;;;;;2.10;1.30;;;;;;;26.55;44.14;98802.16;5013570;28;20421;-82
2023/07/13 11:39:42;;;;;;;3.90;1.40;;;;;;;26.64;43.99;98805.50;5014460;28;20033;-82